createdAt,value
2018-05-11T00:01:50.871Z,19.62
2018-05-11T00:05:53.356Z,19.61
2018-05-11T00:09:55.808Z,19.63
2018-05-11T00:13:58.286Z,19.67
2018-05-11T00:18:00.771Z,19.71
2018-05-11T00:22:03.236Z,19.72
2018-05-11T00:26:05.711Z,19.74
2018-05-11T00:30:08.190Z,19.74
2018-05-11T00:34:10.715Z,19.72
2018-05-11T00:38:13.182Z,19.69
2018-05-11T00:42:15.667Z,19.70
2018-05-11T00:46:18.168Z,19.71
2018-05-11T00:50:26.061Z,19.71
2018-05-11T00:54:28.526Z,19.71
2018-05-11T00:58:31.017Z,19.71
2018-05-11T01:02:33.481Z,19.69
2018-05-11T01:06:35.967Z,19.67
2018-05-11T01:10:38.448Z,19.66
2018-05-11T01:14:40.939Z,19.63
2018-05-11T01:18:43.400Z,19.60
2018-05-11T01:22:45.884Z,19.57
2018-05-11T01:26:48.368Z,19.52
2018-05-11T01:30:50.854Z,19.47
2018-05-11T01:34:53.339Z,19.40
2018-05-11T01:38:55.830Z,19.35
2018-05-11T01:42:58.286Z,19.30
2018-05-11T01:47:00.764Z,19.26
2018-05-11T01:51:03.250Z,19.23
2018-05-11T01:55:05.729Z,19.21
2018-05-11T01:59:08.203Z,19.18
2018-05-11T02:03:10.683Z,19.15
2018-05-11T02:07:13.146Z,19.12
2018-05-11T02:11:15.631Z,19.08
2018-05-11T02:15:18.091Z,19.05
2018-05-11T02:19:20.577Z,19.04
2018-05-11T02:23:23.054Z,19.00
2018-05-11T02:27:25.503Z,18.93
2018-05-11T02:31:27.983Z,18.91
2018-05-11T02:35:30.463Z,18.89
2018-05-11T02:39:32.922Z,18.85
2018-05-11T02:43:35.407Z,18.82
2018-05-11T02:47:37.891Z,18.76
2018-05-11T02:51:40.356Z,18.70
2018-05-11T02:55:42.840Z,18.66
2018-05-11T02:59:45.324Z,18.65
2018-05-11T03:03:47.791Z,18.59
2018-05-11T03:07:50.272Z,18.56
2018-05-11T03:11:52.748Z,18.53
2018-05-11T03:15:55.229Z,18.50
2018-05-11T03:19:57.675Z,18.48
2018-05-11T03:24:00.155Z,18.48
2018-05-11T03:28:02.641Z,18.47
2018-05-11T03:32:05.125Z,18.46
2018-05-11T03:36:07.614Z,18.45
2018-05-11T03:40:10.099Z,18.46
2018-05-11T03:44:12.560Z,18.45
2018-05-11T03:48:15.069Z,18.44
2018-05-11T03:52:17.537Z,18.44
2018-05-11T03:56:20.024Z,18.45
2018-05-11T04:00:22.507Z,18.43
2018-05-11T04:04:36.824Z,18.46
2018-05-11T04:08:43.651Z,18.46
2018-05-11T04:12:46.124Z,18.45
2018-05-11T04:16:48.605Z,18.47
2018-05-11T04:20:51.107Z,18.49
2018-05-11T04:24:53.591Z,18.48
2018-05-11T04:28:56.153Z,18.49
2018-05-11T04:32:58.586Z,18.51
2018-05-11T04:37:01.039Z,18.52
2018-05-11T04:41:03.536Z,18.54
2018-05-11T04:45:06.000Z,18.53
2018-05-11T04:49:08.500Z,18.54
2018-05-11T04:53:10.990Z,18.61
2018-05-11T04:57:13.502Z,18.66
2018-05-11T05:01:15.996Z,18.73
2018-05-11T05:05:18.475Z,18.86
2018-05-11T05:09:20.971Z,19.07
2018-05-11T05:13:23.446Z,19.20
2018-05-11T05:17:25.952Z,19.32
2018-05-11T05:21:28.417Z,19.43
2018-05-11T05:25:30.914Z,19.49
2018-05-11T05:29:33.415Z,19.51
2018-05-11T05:33:35.921Z,19.58
2018-05-11T05:37:38.422Z,19.67
2018-05-11T05:41:40.895Z,19.71
2018-05-11T05:45:43.425Z,19.78
2018-05-11T05:49:45.917Z,20.00
2018-05-11T05:53:48.382Z,20.20
2018-05-11T05:57:50.888Z,20.45
2018-05-11T06:01:53.360Z,20.56
2018-05-11T06:05:55.854Z,20.59
2018-05-11T06:09:58.337Z,20.68
2018-05-11T06:14:00.822Z,20.72
2018-05-11T06:18:03.309Z,20.79
2018-05-11T06:22:05.913Z,20.87
2018-05-11T06:26:08.305Z,21.03
2018-05-11T06:30:11.694Z,21.21
2018-05-11T06:34:14.181Z,21.27
2018-05-11T06:38:16.660Z,21.26
2018-05-11T06:42:19.155Z,21.22
2018-05-11T06:46:21.620Z,21.40
2018-05-11T06:50:24.124Z,21.54
2018-05-11T06:54:26.619Z,21.68
2018-05-11T06:58:29.087Z,21.72
2018-05-11T07:02:31.580Z,21.65
2018-05-11T07:06:34.055Z,21.55
2018-05-11T07:10:36.538Z,21.44
2018-05-11T07:14:39.033Z,21.39
2018-05-11T07:18:41.518Z,21.32
2018-05-11T07:22:44.023Z,21.33
2018-05-11T07:26:46.484Z,21.43
2018-05-11T07:30:49.990Z,21.45
2018-05-11T07:34:52.560Z,21.40
2018-05-11T07:38:54.989Z,21.29
2018-05-11T07:42:57.467Z,21.25
2018-05-11T07:46:59.961Z,21.20
2018-05-11T07:51:02.453Z,21.15
2018-05-11T07:55:04.947Z,21.10
2018-05-11T07:59:07.404Z,21.09
2018-05-11T08:03:09.905Z,21.17
2018-05-11T08:07:12.399Z,21.26
2018-05-11T08:11:14.889Z,21.34
2018-05-11T08:15:17.392Z,21.35
2018-05-11T08:19:19.875Z,21.39
2018-05-11T08:23:22.363Z,21.33
2018-05-11T08:27:24.885Z,21.27
2018-05-11T08:31:27.389Z,21.30
2018-05-11T08:35:29.890Z,21.27
2018-05-11T08:39:32.396Z,21.19
2018-05-11T08:43:34.898Z,21.15
2018-05-11T08:47:37.376Z,21.18
2018-05-11T08:51:39.876Z,21.24
2018-05-11T08:55:42.369Z,21.31
2018-05-11T08:59:44.868Z,21.44
2018-05-11T09:03:47.360Z,21.58
2018-05-11T09:07:49.919Z,21.74
2018-05-11T09:11:52.399Z,21.94
2018-05-11T09:15:54.906Z,22.05
2018-05-11T09:19:57.366Z,22.10
2018-05-11T09:23:59.852Z,22.12
2018-05-11T09:28:02.355Z,22.13
2018-05-11T09:32:04.881Z,22.12
2018-05-11T09:36:07.366Z,22.08
2018-05-11T09:40:10.809Z,22.08
2018-05-11T09:44:13.312Z,22.09
2018-05-11T09:48:15.789Z,22.12
2018-05-11T09:52:18.282Z,22.18
2018-05-11T09:56:20.792Z,22.21
2018-05-11T10:00:26.253Z,22.25
2018-05-11T10:04:28.747Z,22.27
2018-05-11T10:08:31.227Z,22.34
2018-05-11T10:12:33.750Z,22.43
2018-05-11T10:16:36.251Z,22.59
2018-05-11T10:20:38.739Z,22.77
2018-05-11T10:24:41.242Z,23.01
2018-05-11T10:28:43.754Z,23.18
2018-05-11T10:32:46.236Z,23.26
2018-05-11T10:36:48.725Z,23.34
2018-05-11T10:40:51.314Z,23.38
2018-05-11T10:44:53.775Z,23.42
2018-05-11T10:48:56.274Z,23.47
2018-05-11T10:52:58.766Z,23.55
2018-05-11T10:57:01.254Z,23.60
2018-05-11T11:01:03.757Z,23.66
2018-05-11T11:05:06.221Z,23.76
2018-05-11T11:09:08.715Z,23.86
2018-05-11T11:13:11.207Z,24.02
2018-05-11T11:17:13.680Z,24.16
2018-05-11T11:21:16.175Z,24.22
2018-05-11T11:25:18.679Z,24.34
2018-05-11T11:29:21.167Z,24.51
2018-05-11T11:33:23.660Z,24.52
2018-05-11T11:37:26.136Z,24.54
2018-05-11T11:41:28.627Z,24.62
2018-05-11T11:45:31.110Z,24.75
2018-05-11T11:49:33.608Z,24.83
2018-05-11T11:53:36.108Z,25.01
2018-05-11T11:57:38.599Z,25.08
2018-05-11T12:01:41.233Z,25.17
2018-05-11T12:05:43.666Z,25.28
2018-05-11T12:09:46.166Z,25.34
2018-05-11T12:13:48.659Z,25.30
2018-05-11T12:17:51.140Z,25.24
2018-05-11T12:21:53.651Z,25.23
2018-05-11T12:25:56.160Z,25.25
2018-05-11T12:29:58.651Z,25.27
2018-05-11T12:34:01.152Z,25.44
2018-05-11T12:38:03.618Z,25.61
2018-05-11T12:42:06.116Z,25.71
2018-05-11T12:46:08.618Z,25.71
2018-05-11T12:50:11.103Z,25.79
2018-05-11T12:54:13.629Z,25.74
2018-05-11T12:58:16.133Z,25.60
2018-05-11T13:02:18.640Z,25.65
2018-05-11T13:06:21.131Z,25.79
2018-05-11T13:10:23.619Z,25.91
2018-05-11T13:14:26.135Z,25.96
2018-05-11T13:18:28.662Z,25.98
2018-05-11T13:22:31.159Z,25.97
2018-05-11T13:26:33.618Z,25.99
2018-05-11T13:30:36.160Z,25.93
2018-05-11T13:34:38.616Z,26.03
2018-05-11T13:38:41.202Z,25.96
2018-05-11T13:42:43.661Z,25.88
2018-05-11T13:46:46.141Z,25.80
2018-05-11T13:50:48.631Z,25.79
2018-05-11T13:54:51.123Z,25.79
2018-05-11T13:58:53.623Z,25.85
2018-05-11T14:02:56.089Z,25.86
2018-05-11T14:06:58.576Z,25.81
2018-05-11T14:11:01.118Z,25.79
2018-05-11T14:15:03.561Z,25.65
2018-05-11T14:19:06.014Z,25.55
2018-05-11T14:23:08.561Z,25.55
2018-05-11T14:27:11.068Z,25.54
2018-05-11T14:31:13.550Z,25.58
2018-05-11T14:35:16.039Z,25.61
2018-05-11T14:39:18.550Z,25.66
2018-05-11T14:43:22.106Z,25.56
2018-05-11T14:47:24.591Z,25.60
2018-05-11T14:51:27.054Z,25.55
2018-05-11T14:55:29.533Z,25.59
2018-05-11T14:59:32.016Z,25.56
2018-05-11T15:03:34.499Z,25.54
2018-05-11T15:07:36.994Z,25.54
2018-05-11T15:11:39.494Z,25.54
2018-05-11T15:15:41.957Z,25.58
2018-05-11T15:19:44.445Z,25.55
2018-05-11T15:23:46.933Z,25.48
2018-05-11T15:27:49.416Z,25.44
2018-05-11T15:31:51.896Z,25.42
2018-05-11T15:35:54.382Z,25.35
2018-05-11T15:39:56.867Z,25.31
2018-05-11T15:43:59.360Z,25.24
2018-05-11T15:48:01.848Z,25.16
2018-05-11T15:52:04.366Z,25.08
2018-05-11T15:56:06.861Z,25.04
2018-05-11T16:00:09.349Z,25.00
2018-05-11T16:04:11.829Z,24.95
2018-05-11T16:08:14.300Z,24.87
2018-05-11T16:12:16.793Z,24.76
2018-05-11T16:16:19.279Z,24.73
2018-05-11T16:20:21.744Z,24.70
2018-05-11T16:24:24.236Z,24.64
2018-05-11T16:28:26.692Z,24.56
2018-05-11T16:32:29.190Z,24.54
2018-05-11T16:36:31.653Z,24.48
2018-05-11T16:40:34.186Z,24.39
2018-05-11T16:44:36.646Z,24.34
2018-05-11T16:48:39.123Z,24.29
2018-05-11T16:52:41.617Z,24.24
2018-05-11T16:56:44.099Z,24.21
2018-05-11T17:00:46.581Z,24.17
2018-05-11T17:04:49.087Z,24.12
2018-05-11T17:08:51.552Z,24.09
2018-05-11T17:12:54.039Z,24.04
2018-05-11T17:16:56.539Z,24.03
2018-05-11T17:20:58.999Z,24.02
2018-05-11T17:25:01.484Z,24.01
2018-05-11T17:29:03.979Z,24.00
2018-05-11T17:33:06.459Z,23.99
2018-05-11T17:37:08.937Z,23.96
2018-05-11T17:41:11.425Z,23.92
2018-05-11T17:45:13.897Z,23.85
2018-05-11T17:49:16.404Z,23.80
2018-05-11T17:53:18.945Z,23.74
2018-05-11T17:57:21.436Z,23.69
2018-05-11T18:01:23.938Z,23.65
2018-05-11T18:05:26.423Z,23.60
2018-05-11T18:09:28.920Z,23.57
2018-05-11T18:13:31.388Z,23.50
2018-05-11T18:17:33.872Z,23.44
2018-05-11T18:21:36.335Z,23.38
2018-05-11T18:25:38.844Z,23.36
2018-05-11T18:29:41.330Z,23.31
2018-05-11T18:33:43.832Z,23.27
2018-05-11T18:37:46.331Z,23.21
2018-05-11T18:41:48.821Z,23.16
2018-05-11T18:45:51.275Z,23.08
2018-05-11T18:49:53.778Z,23.01
2018-05-11T18:53:56.760Z,22.93
2018-05-11T18:57:58.761Z,22.85
2018-05-11T19:02:01.263Z,22.79
2018-05-11T19:06:03.755Z,22.70
2018-05-11T19:10:06.260Z,22.64
2018-05-11T19:14:08.777Z,22.58
2018-05-11T19:18:11.277Z,22.51
2018-05-11T19:22:13.744Z,22.43
2018-05-11T19:26:16.243Z,22.36
2018-05-11T19:30:18.713Z,22.30
2018-05-11T19:34:21.212Z,22.24
2018-05-11T19:38:23.727Z,22.19
2018-05-11T19:42:26.203Z,22.13
2018-05-11T19:46:28.690Z,22.09
2018-05-11T19:50:31.199Z,22.05
2018-05-11T19:54:33.691Z,22.01
2018-05-11T19:58:36.188Z,21.94
2018-05-11T20:02:38.683Z,21.85
2018-05-11T20:06:42.039Z,21.79
2018-05-11T20:10:44.535Z,21.73
2018-05-11T20:14:47.018Z,21.62
2018-05-11T20:18:49.518Z,21.55
2018-05-11T20:22:52.015Z,21.51
2018-05-11T20:26:54.513Z,21.47
2018-05-11T20:30:57.010Z,21.39
2018-05-11T20:34:59.470Z,21.32
2018-05-11T20:39:01.962Z,21.27
2018-05-11T20:43:04.457Z,21.21
2018-05-11T20:47:06.957Z,21.18
2018-05-11T20:51:09.428Z,21.14
2018-05-11T20:55:11.931Z,21.05
2018-05-11T20:59:14.397Z,21.00
2018-05-11T21:03:16.897Z,20.99
2018-05-11T21:07:19.386Z,20.96
2018-05-11T21:11:21.889Z,20.93
2018-05-11T21:15:24.350Z,20.89
2018-05-11T21:19:26.837Z,20.84
2018-05-11T21:23:29.331Z,20.80
2018-05-11T21:27:31.838Z,20.76
2018-05-11T21:31:34.324Z,20.72
2018-05-11T21:35:36.807Z,20.65
2018-05-11T21:39:39.293Z,20.57
2018-05-11T21:43:41.803Z,20.54
2018-05-11T21:47:44.287Z,20.49
2018-05-11T21:51:46.752Z,20.41
2018-05-11T21:55:49.240Z,20.30
2018-05-11T21:59:51.729Z,20.28
2018-05-11T22:03:54.198Z,20.23
2018-05-11T22:07:56.698Z,20.17
2018-05-11T22:11:59.223Z,20.15
2018-05-11T22:16:01.803Z,20.14
2018-05-11T22:20:04.277Z,20.10
2018-05-11T22:24:06.772Z,20.04
2018-05-11T22:28:09.263Z,19.96
2018-05-11T22:32:11.752Z,19.92
2018-05-11T22:36:14.243Z,19.88
2018-05-11T22:40:16.740Z,19.83
2018-05-11T22:44:19.228Z,19.76
2018-05-11T22:48:21.711Z,19.73
2018-05-11T22:52:24.204Z,19.68
2018-05-11T22:56:26.681Z,19.63
2018-05-11T23:00:43.995Z,19.58
2018-05-11T23:04:46.479Z,19.53
2018-05-11T23:08:48.971Z,19.50
2018-05-11T23:12:51.459Z,19.45
2018-05-11T23:16:53.948Z,19.40
2018-05-11T23:20:56.433Z,19.37
2018-05-11T23:24:58.926Z,19.31
2018-05-11T23:29:01.423Z,19.24
2018-05-11T23:33:03.887Z,19.13
2018-05-11T23:37:06.385Z,19.05
2018-05-11T23:41:08.883Z,19.04
2018-05-11T23:45:11.398Z,19.01
2018-05-11T23:49:13.927Z,18.98
2018-05-11T23:53:16.426Z,18.93
2018-05-11T23:57:20.033Z,18.89
